Roxbury, Kansas
Current Conditions -  °F | °C
As of 12:53 AM on Sunday 26 Oct 2014 (Local Time) from KSLN Reporting Station
Clear Clear  
Wind Chill: 62°   Ceiling: Unl
Heat Index: 62°   Visibility: 10mi
Dew Point: 56°   Wind: 6mph
Humidity: 80%   Direction: 160°SSE
Pressure: 29.91"   Gusts: NA
Location:  38.55°N, 97.43°W
Report Text: KSLN 260553Z AUTO 16005KT 10SM CLR 17/13 A2991 RMK AO2 SLP117 T01670133 10233 20161 403220111 58008
Loading
Personal Weather Stations






























Interactive Weather Map
Tropical Storm Tracking
New forecast layout! Learn more

10-Day Weather Forecast

Advertisements
Track Severe Weather on mobile